Time;durP1;ratioP1;P1;durP2;ratioP2;P2;SDS_P1;SDS_P2;PMS_P1;PMS_P2;Temp;Humidity;BMP_temperature;BMP_pressure;BME280_temperature;BME280_humidity;BME280_pressure;Samples;Min_cycle;Max_cycle;Signal;HPM_P1;HPM_P2
2021/10/19 06:22:27;;;;;;;;;12.00;11.00;;;;;18.06;71.31;101683.50;4938760;28;45524;-81
2021/10/19 06:24:52;;;;;;;;;10.33;10.33;;;;;18.05;71.45;101693.28;4941980;28;45499;-81
2021/10/19 06:27:20;;;;;;;;;11.00;11.00;;;;;18.00;71.59;101683.63;4924253;28;45438;-81
2021/10/19 06:29:46;;;;;;;;;11.33;11.33;;;;;18.02;71.68;101690.69;4923350;28;45525;-81
2021/10/19 06:32:11;;;;;;;;;11.00;10.33;;;;;18.06;71.66;101694.16;4940172;28;47066;-81
2021/10/19 06:35:13;;;;;;;;;14.33;13.00;;;;;18.08;71.25;101700.34;4923958;28;46269;-81
2021/10/19 06:37:48;;;;;;;;;12.67;12.67;;;;;18.09;71.41;101704.75;4924212;28;45364;-81
2021/10/19 06:40:22;;;;;;;;;13.00;11.25;;;;;18.06;71.48;101702.16;4941713;28;45286;-81
2021/10/19 06:42:47;;;;;;;;;11.33;11.33;;;;;18.08;71.93;101705.69;4941545;28;45668;-81
2021/10/19 06:45:13;;;;;;;;;12.00;12.00;;;;;18.02;71.93;101689.81;4923760;28;45255;-81
2021/10/19 06:47:39;;;;;;;;;11.50;10.25;;;;;18.07;71.82;101703.94;4942083;28;45453;-81
2021/10/19 06:50:15;;;;;;;;;13.00;11.00;;;;;18.05;71.55;101695.09;4923924;28;45289;-82
2021/10/19 06:52:40;;;;;;;;;12.33;12.33;;;;;18.01;71.57;101691.56;4939480;28;48144;-81
2021/10/19 06:55:07;;;;;;;;;11.33;11.33;;;;;18.00;71.77;101691.63;4922049;28;45232;-81
2021/10/19 06:57:41;;;;;;;;;12.33;11.33;;;;;17.99;71.61;101693.41;4937386;28;45327;-81
2021/10/19 07:00:11;;;;;;;;;12.00;10.00;;;;;18.00;71.67;101694.28;4916023;28;45272;-81
2021/10/19 07:02:37;;;;;;;;;12.33;10.67;;;;;18.05;71.54;101708.41;4942760;28;46869;-81
2021/10/19 07:05:06;;;;;;;;;12.67;12.00;;;;;18.06;71.92;101704.81;4923960;28;45430;-81
2021/10/19 07:07:41;;;;;;;;;13.00;10.33;;;;;18.05;71.65;101703.06;4913746;28;45232;-83
2021/10/19 07:24:15;;;;;;;;;10.67;10.67;;;;;18.18;70.79;101714.38;4952871;28;45433;-84
2021/10/19 07:27:03;;;;;;;;;8.67;8.67;;;;;18.24;70.98;101719.59;4955034;28;45257;-83
2021/10/19 07:48:16;;;;;;;;;11.33;8.67;;;;;18.34;70.34;101726.50;4702226;30;45504;-84
2021/10/19 08:22:20;;;;;;;;;11.00;11.00;;;;;18.71;68.18;101755.94;4632803;30;45370;-85
2021/10/19 08:24:45;;;;;;;;;9.67;9.33;;;;;18.78;67.94;101762.03;4678706;30;45295;-84
2021/10/19 08:27:14;;;;;;;;;13.67;12.67;;;;;18.75;67.70;101755.91;4720138;30;45673;-85
2021/10/19 08:29:53;;;;;;;;;;;;;;;;;;;;;
2021/10/19 08:32:34;;;;;;;;;11.00;11.00;;;;;18.85;68.05;101776.16;4913770;28;75159;-87
2021/10/19 14:10:19;;;;;;;;;5.67;5.67;;;;;35.96;22.53;101421.38;4926996;28;45801;-91
2021/10/19 16:20:31;;;;;;;;;;;;;;;;;;;;;
2021/10/19 16:27:11;;;;;;;;;;;;;;;;;;;;;
2021/10/19 16:30:06;;;;;;;;;6.00;6.00;;;;;27.41;31.66;101301.44;4949023;28;45299;-90
2021/10/19 16:32:32;;;;;;;;;8.00;7.00;;;;;27.15;32.12;101296.81;4945589;28;46935;-91
2021/10/19 16:35:04;;;;;;;;;7.00;5.33;;;;;26.95;32.72;101300.81;4951072;28;45437;-91
2021/10/19 16:37:48;;;;;;;;;6.00;6.00;;;;;26.74;33.06;101309.31;4960671;28;45286;-89
2021/10/19 16:40:22;;;;;;;;;6.33;6.33;;;;;26.55;33.45;101301.47;4947637;28;45481;-88
2021/10/19 16:42:48;;;;;;;;;7.33;6.67;;;;;26.40;33.94;101300.53;4961921;28;46838;-92
2021/10/19 16:45:29;;;;;;;;;6.00;5.00;;;;;26.26;33.65;101308.63;4954623;28;45402;-88
2021/10/19 16:48:32;;;;;;;;;;;;;;;;;;;;;
2021/10/19 16:54:44;;;;;;;;;;;;;;;;;;;;;
2021/10/19 16:57:38;;;;;;;;;;;;;;;;;;;;;
2021/10/19 17:00:39;;;;;;;;;;;;;;;;;;;;;
2021/10/19 17:03:28;;;;;;;;;;;;;;;;;;;;;
2021/10/19 17:06:47;;;;;;;;;;;;;;;;;;;;;
2021/10/19 17:09:44;;;;;;;;;;;;;;;;;;;;;
2021/10/19 17:15:33;;;;;;;;;;;;;;;;;;;;;
2021/10/19 17:21:29;;;;;;;;;7.67;6.67;;;;;24.57;37.66;101309.22;4957396;28;45492;-90
2021/10/19 17:24:43;;;;;;;;;9.00;6.33;;;;;24.48;38.03;101304.31;4972329;28;45412;-89
2021/10/19 17:27:33;;;;;;;;;;;;;;;;;;;;;
2021/10/19 17:41:51;;;;;;;;;;;;;;;;;;;;;
2021/10/19 17:44:24;;;;;;;;;6.33;5.67;;;;;23.83;39.13;101318.34;4971662;28;74565;-89
2021/10/19 17:47:20;;;;;;;;;;;;;;;;;;;;;
2021/10/19 17:49:51;;;;;;;;;15.00;13.50;;;;;23.65;39.29;101314.72;4975476;28;67969;-87
2021/10/19 17:52:30;;;;;;;;;8.00;8.00;;;;;23.59;39.97;101323.09;4971407;28;45272;-89
2021/10/19 17:54:55;;;;;;;;;8.00;7.00;;;;;23.49;40.08;101316.41;4964479;28;47028;-89
2021/10/19 17:57:37;;;;;;;;;6.00;6.00;;;;;23.48;40.25;101328.97;4954300;28;45351;-89
2021/10/19 18:00:19;;;;;;;;;3.00;3.00;;;;;23.37;40.24;101320.56;4954672;28;45236;-89
2021/10/19 18:02:58;;;;;;;;;8.67;7.00;;;;;23.32;40.61;101326.16;4963363;28;45418;-90
2021/10/19 18:06:08;;;;;;;;;;;;;;;;;;;;;
2021/10/19 18:09:01;;;;;;;;;;;;;;;;;;;;;
2021/10/19 18:11:37;;;;;;;;;6.67;5.67;;;;;23.18;40.34;101323.28;4980395;28;67946;-89
2021/10/19 18:14:20;;;;;;;;;8.67;7.00;;;;;23.17;40.57;101326.88;4973385;28;45512;-89
2021/10/19 18:17:06;;;;;;;;;5.00;5.00;;;;;23.05;41.34;101322.09;4964834;28;46251;-89
2021/10/19 18:20:02;;;;;;;;;;;;;;;;;;;;;
2021/10/19 18:30:07;;;;;;;;;;;;;;;;;;;;;
2021/10/19 18:32:33;;;;;;;;;6.00;6.00;;;;;22.86;41.69;101332.78;4997245;28;71892;-88
2021/10/19 18:35:20;;;;;;;;;5.33;5.00;;;;;22.81;41.99;101340.19;4991053;28;44602;-87
2021/10/19 18:39:27;;;;;;;;;;;;;;;;;;;;;
2021/10/19 19:03:07;;;;;;;;;7.00;7.00;;;;;22.39;42.88;101315.16;4607159;30;45524;-88
2021/10/19 19:05:43;;;;;;;;;7.33;5.33;;;;;22.44;43.40;101323.03;4675942;29;45540;-88
2021/10/19 19:08:08;;;;;;;;;5.33;5.33;;;;;22.36;43.35;101298.34;4815759;29;46918;-86
2021/10/19 19:10:44;;;;;;;;;;;;;;;;;;;;;
2021/10/19 19:14:08;;;;;;;;;;;;;;;;;;;;;
2021/10/19 19:17:20;;;;;;;;;6.00;6.00;;;;;22.33;43.50;101315.44;4920866;28;72959;-92
2021/10/19 19:19:51;;;;;;;;;5.00;5.00;;;;;22.28;43.56;101306.72;4968470;28;48088;-86
2021/10/19 19:22:48;;;;;;;;;;;;;;;;;;;;;
2021/10/19 19:25:22;;;;;;;;;8.00;4.67;;;;;22.28;43.53;101295.13;4972429;28;69567;-87
2021/10/19 19:27:49;;;;;;;;;6.00;6.00;;;;;22.21;43.67;101287.34;4954545;28;45541;-90
2021/10/19 19:30:20;;;;;;;;;6.00;5.00;;;;;22.24;43.53;101281.84;4981303;28;46370;-88
2021/10/19 19:32:54;;;;;;;;;6.00;5.00;;;;;22.20;43.80;101287.41;4979984;28;45416;-85
2021/10/19 19:35:24;;;;;;;;;6.33;6.00;;;;;22.18;43.59;101271.38;4985630;28;45407;-90
2021/10/19 19:37:50;;;;;;;;;4.00;4.00;;;;;22.16;43.66;101281.28;4964648;28;45479;-87
2021/10/19 19:40:27;;;;;;;;;;;;;;;;;;;;;
2021/10/19 19:42:55;;;;;;;;;7.00;5.00;;;;;22.15;43.91;101284.03;4970543;28;71889;-91
2021/10/19 19:45:22;;;;;;;;;5.67;5.00;;;;;22.08;43.89;101275.38;4966123;28;45422;-88
2021/10/19 19:47:48;;;;;;;;;7.00;7.00;;;;;22.12;43.87;101290.38;4970229;28;45596;-88
2021/10/19 19:50:18;;;;;;;;;8.33;6.67;;;;;22.08;43.95;101279.84;4959386;28;46673;-88
2021/10/19 19:52:45;;;;;;;;;7.67;6.67;;;;;22.06;43.95;101284.44;4962251;28;45490;-89
2021/10/19 19:55:11;;;;;;;;;5.33;5.33;;;;;22.07;44.21;101286.16;4960042;28;45365;-88
2021/10/19 19:57:39;;;;;;;;;6.67;6.00;;;;;22.03;43.82;101296.16;4984538;28;45423;-87
2021/10/19 20:00:08;;;;;;;;;6.00;5.00;;;;;21.98;44.40;101282.94;4959394;28;47095;-87
2021/10/19 20:02:34;;;;;;;;;6.00;5.33;;;;;21.93;44.31;101278.72;4976504;28;45697;-90
2021/10/19 20:05:01;;;;;;;;;7.33;5.67;;;;;21.91;44.39;101276.09;4965305;28;45544;-88
2021/10/19 20:07:29;;;;;;;;;5.00;5.00;;;;;21.91;44.53;101281.44;4961524;28;45479;-88
2021/10/19 20:09:55;;;;;;;;;7.00;7.00;;;;;21.86;44.73;101279.91;4959076;28;47200;-89
2021/10/19 20:12:21;;;;;;;;;6.00;5.00;;;;;21.87;44.54;101273.63;4972516;28;45442;-89
2021/10/19 20:14:46;;;;;;;;;5.00;5.00;;;;;21.86;44.50;101277.22;4969463;28;45446;-87
2021/10/19 20:17:12;;;;;;;;;6.33;6.00;;;;;21.75;44.85;101259.78;4969047;28;45020;-89
2021/10/19 20:19:37;;;;;;;;;6.67;6.67;;;;;21.75;44.46;101264.28;4964972;28;46823;-86
2021/10/19 20:22:03;;;;;;;;;4.67;4.67;;;;;21.71;44.72;101250.13;4959477;28;45434;-87
2021/10/19 20:24:29;;;;;;;;;5.00;4.33;;;;;21.75;44.99;101265.13;4975650;28;45704;-89
2021/10/19 20:26:55;;;;;;;;;5.33;5.33;;;;;21.70;44.98;101252.88;4966865;28;45429;-89
2021/10/19 20:29:20;;;;;;;;;7.00;7.00;;;;;21.68;44.74;101261.00;4974539;28;45482;-88
2021/10/19 20:31:48;;;;;;;;;6.67;5.67;;;;;21.67;45.18;101266.41;4960401;28;45450;-89
2021/10/19 20:34:14;;;;;;;;;5.33;4.33;;;;;21.63;44.79;101262.97;4975570;28;45530;-89
2021/10/19 20:36:39;;;;;;;;;6.67;6.67;;;;;21.56;45.00;101253.44;4951557;28;45525;-88
2021/10/19 20:39:06;;;;;;;;;7.33;7.33;;;;;21.57;44.85;101263.22;4955118;28;46951;-88
2021/10/19 20:41:35;;;;;;;;;5.67;5.00;;;;;21.49;45.33;101249.25;4972395;28;45592;-89
2021/10/19 20:44:04;;;;;;;;;5.00;5.00;;;;;21.52;45.30;101263.44;4950283;28;45355;-88
2021/10/19 20:46:31;;;;;;;;;4.67;4.67;;;;;21.47;45.55;101256.53;4965280;28;45487;-89
2021/10/19 20:48:58;;;;;;;;;8.67;6.67;;;;;21.47;45.59;101260.06;4967700;28;48216;-89
2021/10/19 20:51:24;;;;;;;;;6.00;6.00;;;;;21.43;45.48;101250.38;4967735;28;45340;-88
2021/10/19 20:53:49;;;;;;;;;9.33;9.33;;;;;21.43;45.35;101244.16;4974379;28;45420;-90
2021/10/19 20:56:15;;;;;;;;;11.00;8.00;;;;;21.34;45.67;101240.03;4966091;28;45418;-91
2021/10/19 20:58:41;;;;;;;;;6.00;6.00;;;;;21.35;45.63;101244.44;4963765;28;47088;-89
2021/10/19 21:01:07;;;;;;;;;5.00;5.00;;;;;21.32;45.86;101240.09;4966500;28;45507;-90
2021/10/19 21:03:32;;;;;;;;;8.67;6.67;;;;;21.27;45.60;101226.00;4965829;28;44870;-91
2021/10/19 21:05:58;;;;;;;;;5.67;5.67;;;;;21.30;45.73;101235.72;4955410;28;45887;-90
2021/10/19 21:08:23;;;;;;;;;7.00;6.00;;;;;21.26;45.60;101231.44;4960224;28;47072;-88
2021/10/19 21:10:49;;;;;;;;;6.00;5.33;;;;;21.19;45.80;101221.91;4974435;28;45453;-88
2021/10/19 21:13:14;;;;;;;;;11.00;7.33;;;;;21.17;46.04;101224.66;4968155;28;45507;-90
2021/10/19 21:15:41;;;;;;;;;8.33;6.00;;;;;21.17;45.58;101227.34;4950663;28;45575;-90
2021/10/19 21:18:08;;;;;;;;;9.67;6.00;;;;;21.11;46.30;101220.38;4964549;28;48118;-88
2021/10/19 21:20:34;;;;;;;;;9.67;7.00;;;;;21.13;46.04;101226.56;4982967;28;45417;-86
2021/10/19 21:22:59;;;;;;;;;6.33;6.33;;;;;21.10;45.83;101221.34;4956138;28;44887;-88
2021/10/19 21:25:25;;;;;;;;;7.00;7.00;;;;;21.05;46.24;101220.66;4982007;28;45416;-89
2021/10/19 21:27:52;;;;;;;;;6.33;6.33;;;;;21.05;46.11;101223.31;4974157;28;46575;-89
2021/10/19 21:30:18;;;;;;;;;9.33;8.00;;;;;20.97;46.39;101214.72;4973078;28;45911;-88
2021/10/19 21:32:45;;;;;;;;;7.00;5.67;;;;;21.03;46.52;101224.31;4978435;28;45560;-92
2021/10/19 21:35:13;;;;;;;;;6.00;6.00;;;;;20.96;46.38;101213.00;4957647;28;45542;-92
2021/10/19 21:37:39;;;;;;;;;7.67;6.00;;;;;20.92;46.57;101212.22;4953936;28;46149;-90
2021/10/19 21:40:06;;;;;;;;;7.00;6.67;;;;;20.96;46.66;101218.34;4959170;28;45500;-91
2021/10/19 21:42:31;;;;;;;;;6.00;5.00;;;;;20.89;46.43;101215.03;4977375;28;45348;-88
2021/10/19 21:44:57;;;;;;;;;8.67;7.00;;;;;20.88;47.20;101209.75;4966780;28;45434;-88
2021/10/19 21:47:23;;;;;;;;;7.00;6.00;;;;;20.86;46.92;101208.94;4967567;28;46366;-87
2021/10/19 21:49:48;;;;;;;;;7.67;5.33;;;;;20.83;47.30;101206.38;4949647;28;45632;-89
2021/10/19 21:52:14;;;;;;;;;10.33;8.33;;;;;20.78;46.96;101200.31;4950738;28;45497;-89
2021/10/19 21:54:42;;;;;;;;;6.00;5.67;;;;;20.75;47.22;101198.63;4952052;28;45463;-89
2021/10/19 21:57:08;;;;;;;;;6.67;6.67;;;;;20.76;47.12;101205.72;4966905;28;47045;-90
2021/10/19 21:59:34;;;;;;;;;9.00;6.00;;;;;20.69;47.12;101199.75;4952999;28;45604;-90
2021/10/19 22:01:59;;;;;;;;;7.67;7.67;;;;;20.62;47.21;101190.22;4952285;28;45414;-92
2021/10/19 22:04:25;;;;;;;;;5.67;5.67;;;;;20.66;47.27;101196.31;4952287;28;45714;-88
2021/10/19 22:06:50;;;;;;;;;7.00;6.67;;;;;20.66;47.26;101194.53;4961163;28;46929;-92
2021/10/19 22:09:16;;;;;;;;;8.67;6.33;;;;;20.62;47.18;101195.56;4956367;28;45398;-91
2021/10/19 22:11:44;;;;;;;;;9.33;6.00;;;;;20.61;47.47;101171.53;4952493;28;45421;-91
2021/10/19 22:14:11;;;;;;;;;7.33;7.33;;;;;20.59;47.57;101176.94;4953274;28;45591;-91
2021/10/19 22:16:37;;;;;;;;;6.00;6.00;;;;;20.57;47.56;101180.63;4970893;28;46593;-92
2021/10/19 22:19:03;;;;;;;;;7.67;7.33;;;;;20.52;48.09;101170.03;4951074;28;46003;-93
2021/10/19 22:21:29;;;;;;;;;9.33;9.33;;;;;20.51;47.73;101164.78;4976023;28;45492;-93
2021/10/19 22:26:20;;;;;;;;;6.00;6.00;;;;;20.48;48.10;101163.09;4973007;28;45442;-90
2021/10/19 22:28:58;;;;;;;;;8.00;6.00;;;;;20.45;48.21;101161.41;4967501;28;45568;-90
2021/10/19 22:31:31;;;;;;;;;7.67;7.00;;;;;20.46;48.26;101159.59;4966027;28;45439;-94
2021/10/19 22:33:56;;;;;;;;;7.67;7.00;;;;;20.40;48.14;101138.44;4969172;28;45407;-93
2021/10/19 22:36:22;;;;;;;;;7.33;7.33;;;;;20.40;48.12;101146.47;4955206;28;47247;-94
2021/10/19 22:38:48;;;;;;;;;9.50;6.25;;;;;20.41;48.16;101149.06;4971704;28;45552;-92
2021/10/19 22:41:14;;;;;;;;;7.00;7.00;;;;;20.31;48.62;101122.72;4969013;28;45545;-91
2021/10/19 22:43:40;;;;;;;;;6.33;5.33;;;;;20.36;48.47;101129.63;4965986;28;45520;-92
2021/10/19 22:46:06;;;;;;;;;7.00;6.00;;;;;20.30;48.57;101118.31;4964097;28;46958;-93
2021/10/19 22:48:32;;;;;;;;;8.00;8.00;;;;;20.28;48.39;101129.94;4961421;28;45547;-93
2021/10/19 22:50:59;;;;;;;;;6.33;6.00;;;;;20.25;48.66;101130.06;4976930;28;45277;-92
2021/10/19 22:53:25;;;;;;;;;7.00;7.00;;;;;20.27;48.88;101130.00;4957684;28;45539;-89
2021/10/19 22:55:51;;;;;;;;;9.67;7.67;;;;;20.20;48.60;101129.34;4976617;28;47356;-92
2021/10/19 22:58:17;;;;;;;;;7.33;7.33;;;;;20.22;48.82;101130.16;4960644;28;45263;-94
2021/10/19 23:00:43;;;;;;;;;6.00;5.67;;;;;20.18;49.21;101123.22;4963682;28;44896;-93
2021/10/19 23:03:11;;;;;;;;;7.67;6.67;;;;;20.17;49.42;101120.59;4962190;28;45587;-89
2021/10/19 23:05:36;;;;;;;;;4.33;4.33;;;;;20.18;49.13;101130.34;4961179;28;47248;-90
2021/10/19 23:08:02;;;;;;;;;6.33;5.33;;;;;20.09;49.25;101114.66;4951810;28;45377;-90
2021/10/19 23:10:28;;;;;;;;;7.67;7.00;;;;;20.15;49.04;101115.28;4968041;28;45344;-91
2021/10/19 23:12:54;;;;;;;;;7.67;5.00;;;;;20.12;49.45;101104.69;4963748;28;45502;-90
2021/10/19 23:15:22;;;;;;;;;7.33;7.33;;;;;20.15;49.47;101115.28;4961668;28;46856;-91
2021/10/19 23:17:47;;;;;;;;;7.00;6.00;;;;;20.07;49.38;101103.13;4967093;28;45535;-91
2021/10/19 23:20:13;;;;;;;;;7.67;6.00;;;;;20.06;49.88;101104.94;4965982;28;45378;-90
2021/10/19 23:22:40;;;;;;;;;6.33;6.33;;;;;20.09;49.63;101109.31;4967507;28;45416;-91
2021/10/19 23:25:07;;;;;;;;;7.33;6.67;;;;;20.05;49.76;101096.06;4963590;28;46961;-92
2021/10/19 23:27:33;;;;;;;;;8.00;8.00;;;;;20.05;49.93;101087.19;4978892;28;45469;-88
2021/10/19 23:29:59;;;;;;;;;11.67;10.33;;;;;20.10;50.01;101101.25;4978044;28;45222;-90
2021/10/19 23:32:25;;;;;;;;;7.00;6.00;;;;;20.11;50.19;101094.97;4963720;28;45425;-91
2021/10/19 23:34:50;;;;;;;;;6.00;4.00;;;;;20.11;50.03;101089.59;4967326;28;46998;-91
2021/10/19 23:37:16;;;;;;;;;10.00;8.00;;;;;20.12;50.29;101101.16;4959027;28;45517;-91
2021/10/19 23:39:43;;;;;;;;;7.33;7.33;;;;;20.13;50.43;101100.22;4961383;28;45498;-91
2021/10/19 23:42:09;;;;;;;;;7.00;7.00;;;;;20.04;50.47;101086.28;4971774;28;45497;-90
2021/10/19 23:44:35;;;;;;;;;7.67;7.67;;;;;20.04;50.31;101083.59;4959588;28;45417;-91
2021/10/19 23:47:01;;;;;;;;;7.00;7.00;;;;;20.07;50.45;101090.63;4979018;28;45479;-91
2021/10/19 23:49:26;;;;;;;;;7.33;6.33;;;;;20.14;50.75;101102.00;4977909;28;45364;-90
2021/10/19 23:51:52;;;;;;;;;11.67;9.67;;;;;20.09;50.78;101099.47;4966990;28;45598;-91
2021/10/19 23:54:17;;;;;;;;;7.33;6.33;;;;;20.09;50.52;101085.25;4959774;28;47010;-94
2021/10/19 23:56:45;;;;;;;;;7.00;6.00;;;;;20.11;50.68;101088.75;4969134;28;45445;-93
2021/10/19 23:59:14;;;;;;;;;7.33;7.33;;;;;20.07;50.52;101077.28;4957813;28;45396;-92
